createdAt,value
2023-03-19T00:01:29.891Z,3.83
2023-03-19T00:04:02.054Z,3.53
2023-03-19T00:06:31.585Z,4.25
2023-03-19T00:09:01.084Z,3.58
2023-03-19T00:11:30.641Z,3.38
2023-03-19T00:14:00.218Z,4.05
2023-03-19T00:16:29.710Z,3.67
2023-03-19T00:18:59.237Z,4.28
2023-03-19T00:21:31.474Z,3.70
2023-03-19T00:24:02.807Z,3.90
2023-03-19T00:26:33.025Z,4.38
2023-03-19T00:29:02.756Z,3.80
2023-03-19T00:31:33.209Z,4.47
2023-03-19T00:34:03.396Z,4.35
2023-03-19T00:36:35.908Z,3.95
2023-03-19T00:39:05.583Z,4.32
2023-03-19T00:41:38.065Z,3.20
2023-03-19T00:44:08.073Z,4.88
2023-03-19T00:46:37.582Z,4.47
2023-03-19T00:49:07.524Z,4.15
2023-03-19T00:51:43.744Z,3.63
2023-03-19T00:54:14.340Z,4.68
2023-03-19T00:56:43.942Z,3.88
2023-03-19T00:59:13.508Z,4.57
2023-03-19T01:01:43.115Z,4.70
2023-03-19T01:04:14.997Z,4.20
2023-03-19T01:06:47.493Z,4.47
2023-03-19T01:09:17.011Z,4.13
2023-03-19T01:11:46.758Z,4.30
2023-03-19T01:14:18.037Z,4.30
2023-03-19T01:16:48.354Z,5.18
2023-03-19T01:19:18.160Z,4.55
2023-03-19T01:21:50.698Z,4.50
2023-03-19T01:24:23.800Z,3.90
2023-03-19T01:26:56.859Z,4.47
2023-03-19T01:29:37.381Z,3.53
2023-03-19T01:32:23.438Z,4.05
2023-03-19T01:35:15.930Z,4.63
2023-03-19T01:37:48.411Z,4.95
2023-03-19T01:40:18.305Z,4.15
2023-03-19T01:42:54.833Z,5.03
2023-03-19T01:45:54.295Z,5.25
2023-03-19T01:48:42.413Z,4.18
2023-03-19T01:51:17.318Z,5.55
2023-03-19T01:54:02.285Z,4.20
2023-03-19T01:56:37.634Z,4.95
2023-03-19T01:59:13.186Z,5.10
2023-03-19T02:01:53.658Z,4.90
2023-03-19T02:04:23.490Z,4.28
2023-03-19T02:06:53.331Z,5.32
2023-03-19T02:09:26.935Z,4.07
2023-03-19T02:11:57.445Z,4.43
2023-03-19T02:14:27.109Z,5.15
2023-03-19T02:16:57.392Z,4.82
2023-03-19T02:19:30.385Z,5.32
2023-03-19T02:22:00.992Z,5.50
2023-03-19T02:24:36.038Z,5.18
2023-03-19T02:27:12.373Z,5.00
2023-03-19T02:29:45.759Z,4.97
2023-03-19T02:32:15.820Z,5.10
2023-03-19T02:34:45.822Z,4.93
2023-03-19T02:37:17.635Z,6.20
2023-03-19T02:39:50.996Z,5.10
2023-03-19T02:42:24.476Z,4.80
2023-03-19T02:44:54.030Z,4.93
2023-03-19T02:47:23.805Z,4.43
2023-03-19T02:49:53.488Z,4.90
2023-03-19T02:52:23.072Z,3.95
2023-03-19T02:54:52.625Z,5.13
2023-03-19T02:57:24.789Z,5.20
2023-03-19T02:59:54.347Z,4.05
2023-03-19T03:02:24.784Z,4.93
2023-03-19T03:04:54.491Z,5.50
2023-03-19T03:07:24.044Z,4.70
2023-03-19T03:09:53.607Z,4.78
2023-03-19T03:12:25.882Z,4.32
2023-03-19T03:14:55.421Z,4.18
2023-03-19T03:17:24.974Z,4.82
2023-03-19T03:19:54.481Z,3.90
2023-03-19T03:22:24.043Z,4.53
2023-03-19T03:24:53.697Z,5.53
2023-03-19T03:27:25.850Z,5.70
2023-03-19T03:29:55.619Z,4.60
2023-03-19T03:32:25.164Z,4.60
2023-03-19T03:34:54.772Z,6.32
2023-03-19T03:37:24.345Z,4.63
2023-03-19T03:39:53.943Z,5.53
2023-03-19T03:42:26.061Z,5.95
2023-03-19T03:44:55.917Z,5.57
2023-03-19T03:47:25.665Z,4.32
2023-03-19T03:49:55.234Z,4.90
2023-03-19T03:52:24.959Z,4.93
2023-03-19T03:54:54.586Z,4.60
2023-03-19T03:57:26.775Z,4.38
2023-03-19T03:59:58.114Z,4.40
2023-03-19T04:02:28.169Z,4.78
2023-03-19T04:04:58.036Z,4.78
2023-03-19T04:07:27.547Z,4.57
2023-03-19T04:10:00.179Z,4.90
2023-03-19T04:12:33.019Z,4.57
2023-03-19T04:15:02.647Z,4.13
2023-03-19T04:17:32.298Z,4.47
2023-03-19T04:20:02.060Z,4.05
2023-03-19T04:22:31.781Z,5.00
2023-03-19T04:25:02.334Z,5.28
2023-03-19T04:27:35.086Z,4.85
2023-03-19T04:30:04.731Z,5.03
2023-03-19T04:32:35.616Z,6.05
2023-03-19T04:35:05.319Z,4.80
2023-03-19T04:37:34.811Z,4.78
2023-03-19T04:40:04.588Z,4.30
2023-03-19T04:42:39.486Z,5.22
2023-03-19T04:45:13.673Z,4.45
2023-03-19T04:47:44.512Z,5.20
2023-03-19T04:50:14.053Z,5.45
2023-03-19T04:52:45.487Z,4.60
2023-03-19T04:55:15.357Z,8.25
2023-03-19T04:58:09.132Z,6.57
2023-03-19T05:00:39.707Z,4.78
2023-03-19T05:03:10.059Z,4.93
2023-03-19T05:08:10.501Z,4.57
2023-03-19T05:10:40.606Z,5.10
2023-03-19T05:13:12.894Z,5.45
2023-03-19T05:15:48.662Z,6.18
2023-03-19T05:18:18.230Z,5.35
2023-03-19T05:20:48.388Z,5.25
2023-03-19T05:23:23.746Z,6.18
2023-03-19T05:26:01.318Z,5.95
2023-03-19T05:28:59.461Z,5.53
2023-03-19T05:31:38.179Z,7.53
2023-03-19T05:36:37.677Z,6.97
2023-03-19T05:39:15.429Z,7.47
2023-03-19T05:41:46.833Z,6.90
2023-03-19T05:44:23.907Z,6.78
2023-03-19T05:47:04.282Z,6.85
2023-03-19T05:49:36.784Z,8.43
2023-03-19T05:52:07.765Z,7.07
2023-03-19T05:54:37.503Z,6.43
2023-03-19T05:57:12.106Z,6.35
2023-03-19T05:59:52.298Z,5.30
2023-03-19T06:02:43.740Z,4.97
2023-03-19T06:05:28.032Z,4.72
2023-03-19T06:08:01.971Z,5.45
2023-03-19T06:10:42.172Z,7.88
2023-03-19T06:13:13.761Z,6.05
2023-03-19T06:15:57.906Z,7.72
2023-03-19T06:21:09.072Z,7.60
2023-03-19T06:23:38.862Z,9.07
2023-03-19T06:26:10.150Z,11.07
2023-03-19T06:28:47.346Z,6.80
2023-03-19T06:31:20.115Z,6.63
2023-03-19T06:33:55.818Z,7.07
2023-03-19T06:36:28.791Z,10.55
2023-03-19T06:38:58.964Z,9.32
2023-03-19T06:41:28.561Z,8.10
2023-03-19T06:44:08.008Z,7.45
2023-03-19T06:46:40.219Z,66.78
2023-03-19T06:49:09.805Z,16.30
2023-03-19T06:51:39.455Z,6.53
2023-03-19T06:54:09.035Z,6.53
2023-03-19T06:56:38.534Z,11.70
2023-03-19T06:59:08.214Z,6.85
2023-03-19T07:01:40.398Z,6.90
2023-03-19T07:04:09.979Z,7.13
2023-03-19T07:06:39.569Z,19.02
2023-03-19T07:09:09.143Z,9.00
2023-03-19T07:11:38.892Z,8.45
2023-03-19T07:14:08.413Z,8.23
2023-03-19T07:16:40.614Z,8.85
2023-03-19T07:19:10.150Z,17.73
2023-03-19T07:21:39.672Z,18.27
2023-03-19T07:24:09.454Z,9.45
2023-03-19T07:26:38.938Z,8.45
2023-03-19T07:29:08.468Z,14.55
2023-03-19T07:31:41.051Z,18.98
2023-03-19T07:34:10.825Z,12.05
2023-03-19T07:36:40.334Z,14.02
2023-03-19T07:39:10.102Z,17.58
2023-03-19T07:41:39.713Z,8.60
2023-03-19T07:44:11.726Z,10.23
2023-03-19T07:46:43.884Z,11.52
2023-03-19T07:49:13.446Z,7.22
2023-03-19T07:51:43.065Z,9.15
2023-03-19T07:54:12.743Z,8.85
2023-03-19T07:56:42.261Z,14.43
2023-03-19T07:59:11.820Z,9.55
2023-03-19T08:01:43.970Z,7.38
2023-03-19T08:04:13.490Z,13.48
2023-03-19T08:06:43.091Z,11.25
2023-03-19T08:09:13.520Z,8.88
2023-03-19T08:11:43.065Z,8.10
2023-03-19T08:14:12.573Z,7.95
2023-03-19T08:16:44.825Z,6.05
2023-03-19T08:19:14.376Z,10.15
2023-03-19T08:21:44.012Z,7.93
2023-03-19T08:24:13.537Z,6.68
2023-03-19T08:26:43.064Z,7.22
2023-03-19T08:29:12.567Z,6.53
2023-03-19T08:31:44.696Z,10.20
2023-03-19T08:34:14.273Z,6.00
2023-03-19T08:36:43.822Z,7.25
2023-03-19T08:39:13.322Z,6.03
2023-03-19T08:41:42.842Z,7.13
2023-03-19T08:44:12.374Z,7.40
2023-03-19T08:46:45.027Z,10.20
2023-03-19T08:49:14.535Z,9.60
2023-03-19T08:51:44.152Z,9.85
2023-03-19T08:54:14.021Z,7.85
2023-03-19T08:56:43.572Z,7.00
2023-03-19T08:59:13.103Z,9.18
2023-03-19T09:01:45.254Z,12.82
2023-03-19T09:04:14.788Z,6.93
2023-03-19T09:06:45.302Z,8.32
2023-03-19T09:09:14.813Z,9.98
2023-03-19T09:11:44.369Z,5.78
2023-03-19T09:14:14.531Z,10.90
2023-03-19T09:16:46.817Z,7.18
2023-03-19T09:19:16.391Z,7.47
2023-03-19T09:21:46.520Z,8.93
2023-03-19T09:24:16.102Z,8.00
2023-03-19T09:26:45.617Z,6.28
2023-03-19T09:29:15.345Z,10.50
2023-03-19T09:31:47.554Z,6.25
2023-03-19T09:34:17.088Z,20.98
2023-03-19T09:36:46.631Z,6.53
2023-03-19T09:39:16.152Z,5.28
2023-03-19T09:41:52.586Z,5.65
2023-03-19T09:44:24.878Z,5.45
2023-03-19T09:46:59.268Z,5.38
2023-03-19T09:49:30.337Z,6.10
2023-03-19T09:52:01.640Z,6.13
2023-03-19T09:54:36.539Z,5.78
2023-03-19T09:57:06.100Z,6.50
2023-03-19T09:59:36.080Z,22.90
2023-03-19T10:02:29.725Z,11.75
2023-03-19T10:05:05.651Z,18.75
2023-03-19T10:07:43.673Z,5.90
2023-03-19T10:10:30.219Z,6.18
2023-03-19T10:13:02.699Z,5.15
2023-03-19T10:15:33.332Z,5.68
2023-03-19T10:18:07.105Z,5.95
2023-03-19T10:20:44.472Z,6.50
2023-03-19T10:23:22.036Z,5.63
2023-03-19T10:25:52.581Z,5.03
2023-03-19T10:28:22.839Z,4.70
2023-03-19T10:30:58.172Z,5.13
2023-03-19T10:33:36.458Z,4.78
2023-03-19T10:36:08.455Z,3.88
2023-03-19T10:38:42.246Z,4.03
2023-03-19T10:41:21.151Z,4.38
2023-03-19T10:43:54.066Z,4.68
2023-03-19T10:46:24.652Z,3.72
2023-03-19T10:48:56.821Z,4.47
2023-03-19T10:51:28.745Z,4.25
2023-03-19T10:53:58.544Z,4.88
2023-03-19T10:56:29.648Z,7.32
2023-03-19T10:59:00.800Z,4.13
2023-03-19T11:01:31.477Z,5.10
2023-03-19T11:04:04.397Z,5.32
2023-03-19T11:06:35.620Z,4.63
2023-03-19T11:09:16.657Z,4.35
2023-03-19T11:11:50.592Z,4.05
2023-03-19T11:14:21.259Z,3.80
2023-03-19T11:16:51.918Z,4.47
2023-03-19T11:19:28.228Z,6.30
2023-03-19T11:22:04.981Z,7.20
2023-03-19T11:24:36.058Z,4.82
2023-03-19T11:27:06.022Z,5.53
2023-03-19T11:29:36.318Z,6.57
2023-03-19T11:32:21.241Z,5.35
2023-03-19T11:34:57.020Z,5.82
2023-03-19T11:37:30.941Z,6.53
2023-03-19T11:40:03.991Z,5.20
2023-03-19T11:42:43.204Z,5.45
2023-03-19T11:45:16.399Z,9.45
2023-03-19T11:47:49.473Z,6.70
2023-03-19T11:50:25.918Z,5.28
2023-03-19T11:53:08.752Z,5.45
2023-03-19T11:55:43.553Z,4.93
2023-03-19T11:58:31.145Z,5.15
2023-03-19T12:01:03.552Z,6.47
2023-03-19T12:03:59.742Z,6.00
2023-03-19T12:06:38.985Z,5.88
2023-03-19T12:11:45.314Z,6.55
2023-03-19T12:14:20.632Z,4.00
2023-03-19T12:16:56.366Z,8.68
2023-03-19T12:19:34.280Z,5.40
2023-03-19T12:22:11.763Z,6.22
2023-03-19T12:24:47.192Z,5.63
2023-03-19T12:27:22.914Z,4.63
2023-03-19T12:29:58.265Z,5.93
2023-03-19T12:32:43.611Z,5.07
2023-03-19T12:35:14.711Z,4.63
2023-03-19T12:37:49.809Z,4.63
2023-03-19T12:40:25.188Z,4.82
2023-03-19T12:42:55.462Z,6.20
2023-03-19T12:45:34.230Z,5.15
2023-03-19T12:48:08.609Z,5.57
2023-03-19T12:50:40.680Z,5.45
2023-03-19T12:53:16.885Z,5.95
2023-03-19T12:55:51.417Z,4.88
2023-03-19T12:58:25.749Z,5.70
2023-03-19T13:01:01.363Z,4.50
2023-03-19T13:03:34.794Z,4.35
2023-03-19T13:06:08.661Z,4.13
2023-03-19T13:08:44.690Z,4.47
2023-03-19T13:11:16.112Z,5.97
2023-03-19T13:13:48.760Z,5.13
2023-03-19T13:16:23.972Z,5.93
2023-03-19T13:18:57.824Z,5.22
2023-03-19T13:21:29.584Z,5.35
2023-03-19T13:24:09.734Z,5.10
2023-03-19T13:26:39.911Z,4.47
2023-03-19T13:29:11.934Z,4.60
2023-03-19T13:31:41.857Z,4.65
2023-03-19T13:34:21.819Z,5.30
2023-03-19T13:36:57.404Z,4.55
2023-03-19T13:39:32.970Z,3.92
2023-03-19T13:42:17.572Z,5.68
2023-03-19T13:44:52.098Z,5.25
2023-03-19T13:47:37.022Z,4.72
2023-03-19T13:50:16.417Z,7.47
2023-03-19T13:52:51.097Z,5.40
2023-03-19T13:55:34.547Z,5.10
2023-03-19T13:58:17.860Z,6.07
2023-03-19T14:01:02.198Z,5.80
2023-03-19T14:03:33.850Z,9.65
2023-03-19T14:06:04.211Z,4.82
2023-03-19T14:08:36.585Z,5.43
2023-03-19T14:11:10.087Z,5.10
2023-03-19T14:13:43.188Z,6.93
2023-03-19T14:16:17.564Z,5.15
2023-03-19T14:18:48.299Z,4.88
2023-03-19T14:21:22.039Z,6.20
2023-03-19T14:23:57.893Z,9.30
2023-03-19T14:26:31.891Z,5.53
2023-03-19T14:29:04.429Z,6.93
2023-03-19T14:31:40.462Z,5.35
2023-03-19T14:34:26.496Z,6.03
2023-03-19T14:37:00.992Z,5.88
2023-03-19T14:39:32.872Z,4.47
2023-03-19T14:42:10.632Z,6.05
2023-03-19T14:45:04.392Z,8.15
2023-03-19T14:47:49.988Z,11.57
2023-03-19T14:50:43.496Z,57.92
2023-03-19T14:53:15.090Z,68.63
2023-03-19T14:55:44.865Z,38.03
2023-03-19T14:58:17.037Z,14.00
2023-03-19T15:00:47.827Z,9.75
2023-03-19T15:03:32.263Z,14.20
2023-03-19T15:06:02.749Z,30.73
2023-03-19T15:08:34.261Z,10.23
2023-03-19T15:11:09.970Z,9.13
2023-03-19T15:13:47.256Z,4.47
2023-03-19T15:16:24.276Z,5.18
2023-03-19T15:18:53.819Z,4.88
2023-03-19T15:21:24.062Z,5.38
2023-03-19T15:23:53.782Z,4.78
2023-03-19T15:26:32.345Z,5.68
2023-03-19T15:29:04.751Z,9.20
2023-03-19T15:31:51.659Z,5.93
2023-03-19T15:34:28.052Z,5.50
2023-03-19T15:37:00.690Z,7.00
2023-03-19T15:39:31.263Z,9.88
2023-03-19T15:42:02.252Z,5.30
2023-03-19T15:44:36.664Z,5.80
2023-03-19T15:47:07.356Z,5.18
2023-03-19T15:49:39.149Z,16.35
2023-03-19T15:52:12.166Z,9.65
2023-03-19T15:54:42.053Z,13.02
2023-03-19T15:57:13.114Z,19.90
2023-03-19T15:59:45.607Z,19.98
2023-03-19T16:02:20.162Z,13.18
2023-03-19T16:05:18.154Z,10.10
2023-03-19T16:07:44.266Z,14.38
2023-03-19T16:10:34.142Z,11.32
2023-03-19T16:13:05.742Z,12.95
2023-03-19T16:15:57.227Z,14.25
2023-03-19T16:18:28.211Z,8.60
2023-03-19T16:21:03.078Z,8.10
2023-03-19T16:23:34.076Z,10.85
2023-03-19T16:26:08.113Z,16.08
2023-03-19T16:28:37.630Z,12.18
2023-03-19T16:31:18.715Z,11.30
2023-03-19T16:33:48.373Z,13.77
2023-03-19T16:36:17.921Z,15.13
2023-03-19T16:38:48.873Z,18.30
2023-03-19T16:41:20.374Z,12.88
2023-03-19T16:43:50.113Z,12.55
2023-03-19T16:46:22.241Z,15.43
2023-03-19T16:48:51.832Z,17.48
2023-03-19T16:51:23.104Z,15.88
2023-03-19T16:53:52.834Z,10.90
2023-03-19T16:56:22.403Z,19.13
2023-03-19T16:58:51.894Z,22.85
2023-03-19T17:01:24.955Z,24.42
2023-03-19T17:03:55.032Z,22.52
2023-03-19T17:06:25.204Z,17.50
2023-03-19T17:08:54.758Z,21.92
2023-03-19T17:11:26.689Z,21.58
2023-03-19T17:13:57.172Z,28.27
2023-03-19T17:16:29.657Z,36.47
2023-03-19T17:18:59.745Z,28.15
2023-03-19T17:21:30.150Z,31.58
2023-03-19T17:23:59.762Z,15.30
2023-03-19T17:26:30.761Z,14.93
2023-03-19T17:29:00.445Z,19.40
2023-03-19T17:31:33.237Z,24.98
2023-03-19T17:34:04.317Z,15.75
2023-03-19T17:36:34.089Z,15.95
2023-03-19T17:39:03.818Z,14.68
2023-03-19T17:41:34.535Z,14.93
2023-03-19T17:44:06.484Z,11.85
2023-03-19T17:46:40.727Z,14.77
2023-03-19T17:49:14.462Z,15.48
2023-03-19T17:51:44.018Z,19.58
2023-03-19T17:54:14.571Z,15.18
2023-03-19T17:56:44.323Z,16.45
2023-03-19T17:59:13.867Z,14.52
2023-03-19T18:01:47.340Z,9.70
2023-03-19T18:04:17.965Z,8.65
2023-03-19T18:06:48.995Z,8.07
2023-03-19T18:09:21.182Z,7.07
2023-03-19T18:11:50.958Z,7.43
2023-03-19T18:14:20.548Z,6.57
2023-03-19T18:16:52.870Z,6.75
2023-03-19T18:19:23.882Z,6.55
2023-03-19T18:21:53.452Z,6.30
2023-03-19T18:24:23.194Z,6.47
2023-03-19T18:26:52.818Z,8.95
2023-03-19T18:29:23.078Z,8.18
2023-03-19T18:31:55.446Z,8.98
2023-03-19T18:34:24.938Z,13.05
2023-03-19T18:36:54.513Z,11.10
2023-03-19T18:39:24.036Z,11.05
2023-03-19T18:41:53.552Z,8.30
2023-03-19T18:44:24.302Z,7.05
2023-03-19T18:46:56.456Z,8.77
2023-03-19T18:49:27.329Z,8.43
2023-03-19T18:52:04.565Z,9.80
2023-03-19T18:54:34.668Z,6.80
2023-03-19T18:57:05.868Z,7.88
2023-03-19T18:59:36.224Z,7.63
2023-03-19T19:02:27.950Z,10.18
2023-03-19T19:04:58.335Z,7.22
2023-03-19T19:07:27.875Z,10.75
2023-03-19T19:09:57.539Z,7.82
2023-03-19T19:12:28.417Z,9.68
2023-03-19T19:14:59.611Z,9.27
2023-03-19T19:17:32.741Z,9.07
2023-03-19T19:20:02.245Z,8.98
2023-03-19T19:22:31.758Z,7.22
2023-03-19T19:25:01.315Z,7.72
2023-03-19T19:27:30.860Z,6.75
2023-03-19T19:30:00.948Z,8.25
2023-03-19T19:32:35.396Z,7.53
2023-03-19T19:35:06.924Z,9.27
2023-03-19T19:37:36.605Z,8.27
2023-03-19T19:40:06.328Z,7.53
2023-03-19T19:42:35.896Z,9.13
2023-03-19T19:45:05.386Z,10.93
2023-03-19T19:47:37.519Z,14.38
2023-03-19T19:50:07.542Z,14.02
2023-03-19T19:52:37.103Z,13.48
2023-03-19T19:55:07.060Z,7.32
2023-03-19T19:57:36.717Z,7.57
2023-03-19T20:00:06.750Z,12.32
2023-03-19T20:02:44.568Z,10.23
2023-03-19T20:05:18.357Z,9.55
2023-03-19T20:07:47.885Z,9.82
2023-03-19T20:10:17.443Z,7.93
2023-03-19T20:12:48.380Z,10.10
2023-03-19T20:15:18.826Z,11.25
2023-03-19T20:17:51.965Z,9.65
2023-03-19T20:20:22.553Z,6.63
2023-03-19T20:22:53.315Z,5.72
2023-03-19T20:25:23.797Z,6.22
2023-03-19T20:27:54.783Z,6.65
2023-03-19T20:30:26.893Z,7.45
2023-03-19T20:32:59.772Z,7.03
2023-03-19T20:35:30.246Z,6.90
2023-03-19T20:38:00.532Z,6.47
2023-03-19T20:40:31.735Z,6.38
2023-03-19T20:43:01.761Z,7.20
2023-03-19T20:45:35.473Z,6.63
2023-03-19T20:48:13.620Z,7.30
2023-03-19T20:50:43.297Z,7.70
2023-03-19T20:53:13.101Z,7.78
2023-03-19T20:55:43.362Z,6.85
2023-03-19T20:58:16.059Z,6.57
2023-03-19T21:00:46.054Z,6.43
2023-03-19T21:03:22.410Z,6.80
2023-03-19T21:05:53.399Z,6.80
2023-03-19T21:08:32.633Z,6.93
2023-03-19T21:11:02.825Z,7.07
2023-03-19T21:13:32.862Z,7.90
2023-03-19T21:16:02.851Z,17.35
2023-03-19T21:18:34.995Z,9.23
2023-03-19T21:21:04.575Z,12.00
2023-03-19T21:23:36.065Z,13.52
2023-03-19T21:26:09.393Z,14.90
2023-03-19T21:28:39.879Z,17.73
2023-03-19T21:31:10.009Z,19.23
2023-03-19T21:33:43.487Z,25.17
2023-03-19T21:36:13.172Z,15.88
2023-03-19T21:38:42.818Z,13.52
2023-03-19T21:41:18.397Z,10.82
2023-03-19T21:43:49.111Z,12.05
2023-03-19T21:46:24.520Z,8.85
2023-03-19T21:48:57.250Z,7.47
2023-03-19T21:51:27.386Z,8.18
2023-03-19T21:53:57.268Z,7.22
2023-03-19T21:56:32.723Z,6.97
2023-03-19T21:59:03.362Z,6.97
2023-03-19T22:01:32.884Z,8.80
2023-03-19T22:04:05.056Z,7.80
2023-03-19T22:06:34.604Z,9.35
2023-03-19T22:09:04.375Z,8.95
2023-03-19T22:11:35.476Z,8.00
2023-03-19T22:14:06.903Z,7.93
2023-03-19T22:16:36.581Z,9.90
2023-03-19T22:19:09.391Z,8.00
2023-03-19T22:21:38.948Z,8.48
2023-03-19T22:24:08.745Z,8.07
2023-03-19T22:26:39.092Z,7.97
2023-03-19T22:29:09.889Z,8.25
2023-03-19T22:31:40.066Z,7.60
2023-03-19T22:34:14.030Z,7.72
2023-03-19T22:36:43.829Z,7.63
2023-03-19T22:39:13.742Z,10.05
2023-03-19T22:41:45.772Z,8.88
2023-03-19T22:44:19.157Z,9.40
2023-03-19T22:46:49.209Z,10.05
2023-03-19T22:49:21.435Z,8.05
2023-03-19T22:51:51.417Z,8.23
2023-03-19T22:54:20.954Z,9.02
2023-03-19T22:56:50.467Z,8.10
2023-03-19T22:59:20.406Z,8.98
2023-03-19T23:01:50.568Z,7.88
2023-03-19T23:04:24.182Z,8.50
2023-03-19T23:06:53.818Z,9.10
2023-03-19T23:09:24.670Z,8.43
2023-03-19T23:11:54.481Z,7.35
2023-03-19T23:14:31.673Z,7.88
2023-03-19T23:17:03.318Z,9.30
2023-03-19T23:19:36.691Z,9.10
2023-03-19T23:22:07.283Z,8.88
2023-03-19T23:24:37.826Z,10.23
2023-03-19T23:27:07.975Z,9.10
2023-03-19T23:29:39.925Z,9.18
2023-03-19T23:32:09.528Z,8.57
2023-03-19T23:34:56.541Z,8.40
2023-03-19T23:37:29.260Z,7.18
2023-03-19T23:39:58.874Z,8.85
2023-03-19T23:42:30.640Z,8.43
2023-03-19T23:45:03.640Z,8.85
2023-03-19T23:47:33.534Z,7.82
2023-03-19T23:50:05.670Z,10.07
2023-03-19T23:52:35.209Z,9.35
2023-03-19T23:55:04.728Z,9.85
2023-03-19T23:57:34.306Z,9.82
